Tri-State/Milton J. Ferguson Field
KHTS : now visible

Airfield :











YOU CAN JOIN US ON...

 
LOGIN :

Register | Disclaimer

   EN    FR    IT 

 









Legend :    VFR   Marginal VFR   IFR   Intensive IFR   Very Intensive IFR
Visi :
Ceiling :
>= 8 km
>= 3000ft
5 to 8 km
1000 to 3000 ft
1500m to 5 km
500 to 1000 ft
800 to 1500m
200 to 500 ft
< 800m
< 200 ft
Symbols :   Thunderstorms  Fog  Heavy snow  Heavy precipitations  Wind > 20 kt







- Airport Elevation : 828 ft
- IATA code : HTS


KHTS - Tri-State/Milton J. Ferguson Field

CURRENT METAR :
  • 210751Z 30010KT 10SM BKN021 OVC039 11/07 A3001 RMK AO2 SLP161 T01060072 $

EXPIRED METARs :
  • 210658Z 27009G16KT 10SM BKN017 OVC026 13/09 A2997 RMK AO2 T01280094 $
  • 210651Z 27006KT 10SM BKN013 OVC020 13/10 A2997 RMK AO2 SLP148 T01280100 $
  • 210551Z 24007KT 10SM BKN013 OVC018 13/11 A2994 RMK AO2 SLP140 60003 T01330111 10139 20128 53017 $

TAF KHTS
Valid from the 21 at 07:00 until the 22 at 06:00 UTC


210644Z 2107/2206 24007KT P6SM BKN015 WS008/24020KT
FM210900 28005KT P6SM BKN022 WS008/24020KT
FM211300 28004KT P6SM BKN040
FM211500 27004KT P6SM SCT100
FM220200 00000KT P6SM BKN100
KZID FIR / North America



MET'MAP, your aeronautical weather chart ! - Copyright ORBIFLY December 2007 - Disclaimer

ORBIFLY MET'MAP TEAM :

Programming & Development : Alexandra Zaïnal
Concept & Development : Baudouin d'Aumeries
Co-Development & Prog : Marc-Olivier Méhu
Technical & hardware support : Manuel Goepfert

Contact : metmap@orbifly.com




SOURCES & CREDITS :

   NOAA       Earth
Advisory